sensor_id;sensor_type;location;lat;lon;timestamp;P1;durP1;ratioP1;P2;durP2;ratioP2
30519;SDS011;17300;50.374;8.006;2022-10-26T00:01:17;2.40;;;1.90;;
30519;SDS011;17300;50.374;8.006;2022-10-26T00:03:46;2.03;;;1.70;;
30519;SDS011;17300;50.374;8.006;2022-10-26T00:06:13;4.83;;;2.00;;
30519;SDS011;17300;50.374;8.006;2022-10-26T00:08:41;1.90;;;1.70;;
30519;SDS011;17300;50.374;8.006;2022-10-26T00:11:08;3.67;;;1.77;;
30519;SDS011;17300;50.374;8.006;2022-10-26T00:13:37;5.17;;;1.77;;
30519;SDS011;17300;50.374;8.006;2022-10-26T00:16:06;3.50;;;1.70;;
30519;SDS011;17300;50.374;8.006;2022-10-26T00:18:34;2.13;;;1.77;;
30519;SDS011;17300;50.374;8.006;2022-10-26T00:21:03;5.43;;;2.00;;
30519;SDS011;17300;50.374;8.006;2022-10-26T00:23:30;3.00;;;2.10;;
30519;SDS011;17300;50.374;8.006;2022-10-26T00:25:57;3.03;;;1.83;;
30519;SDS011;17300;50.374;8.006;2022-10-26T00:28:24;2.77;;;1.73;;
30519;SDS011;17300;50.374;8.006;2022-10-26T00:30:52;3.20;;;2.17;;
30519;SDS011;17300;50.374;8.006;2022-10-26T00:33:18;2.87;;;1.70;;
30519;SDS011;17300;50.374;8.006;2022-10-26T00:35:46;2.30;;;1.90;;
30519;SDS011;17300;50.374;8.006;2022-10-26T00:38:15;6.03;;;2.23;;
30519;SDS011;17300;50.374;8.006;2022-10-26T00:40:41;3.20;;;2.40;;
30519;SDS011;17300;50.374;8.006;2022-10-26T00:43:12;4.13;;;2.40;;
30519;SDS011;17300;50.374;8.006;2022-10-26T00:45:41;4.07;;;2.90;;
30519;SDS011;17300;50.374;8.006;2022-10-26T00:48:10;3.83;;;2.60;;
30519;SDS011;17300;50.374;8.006;2022-10-26T00:50:41;5.43;;;2.60;;
30519;SDS011;17300;50.374;8.006;2022-10-26T00:53:11;2.57;;;2.37;;
30519;SDS011;17300;50.374;8.006;2022-10-26T00:55:40;3.30;;;2.67;;
30519;SDS011;17300;50.374;8.006;2022-10-26T00:58:11;3.37;;;2.30;;
30519;SDS011;17300;50.374;8.006;2022-10-26T01:00:39;3.23;;;2.50;;
30519;SDS011;17300;50.374;8.006;2022-10-26T01:03:07;3.03;;;2.30;;
30519;SDS011;17300;50.374;8.006;2022-10-26T01:05:35;3.47;;;2.50;;
30519;SDS011;17300;50.374;8.006;2022-10-26T01:08:05;3.93;;;2.10;;
30519;SDS011;17300;50.374;8.006;2022-10-26T01:10:33;2.57;;;2.37;;
30519;SDS011;17300;50.374;8.006;2022-10-26T01:13:02;2.87;;;1.97;;
30519;SDS011;17300;50.374;8.006;2022-10-26T01:15:33;2.30;;;2.10;;
30519;SDS011;17300;50.374;8.006;2022-10-26T01:18:09;3.80;;;2.13;;
30519;SDS011;17300;50.374;8.006;2022-10-26T01:20:44;2.77;;;1.90;;
30519;SDS011;17300;50.374;8.006;2022-10-26T01:23:46;2.97;;;1.93;;
30519;SDS011;17300;50.374;8.006;2022-10-26T01:26:37;3.60;;;2.10;;
30519;SDS011;17300;50.374;8.006;2022-10-26T01:32:17;2.37;;;2.07;;
30519;SDS011;17300;50.374;8.006;2022-10-26T01:34:50;2.50;;;2.03;;
30519;SDS011;17300;50.374;8.006;2022-10-26T01:37:23;2.70;;;2.33;;
30519;SDS011;17300;50.374;8.006;2022-10-26T01:39:56;4.83;;;1.93;;
30519;SDS011;17300;50.374;8.006;2022-10-26T01:42:25;2.30;;;2.10;;
30519;SDS011;17300;50.374;8.006;2022-10-26T01:44:55;4.47;;;2.10;;
30519;SDS011;17300;50.374;8.006;2022-10-26T01:47:27;4.13;;;2.00;;
30519;SDS011;17300;50.374;8.006;2022-10-26T01:49:57;2.40;;;2.20;;
30519;SDS011;17300;50.374;8.006;2022-10-26T01:52:25;3.03;;;2.10;;
30519;SDS011;17300;50.374;8.006;2022-10-26T01:54:58;3.40;;;1.90;;
30519;SDS011;17300;50.374;8.006;2022-10-26T01:57:26;8.13;;;3.03;;
30519;SDS011;17300;50.374;8.006;2022-10-26T02:00:00;2.10;;;1.73;;
30519;SDS011;17300;50.374;8.006;2022-10-26T02:05:35;4.00;;;2.00;;
30519;SDS011;17300;50.374;8.006;2022-10-26T02:08:33;2.60;;;2.03;;
30519;SDS011;17300;50.374;8.006;2022-10-26T02:11:11;3.30;;;1.93;;
30519;SDS011;17300;50.374;8.006;2022-10-26T02:13:50;2.27;;;1.77;;
30519;SDS011;17300;50.374;8.006;2022-10-26T02:16:21;2.67;;;1.97;;
30519;SDS011;17300;50.374;8.006;2022-10-26T02:18:54;2.10;;;1.90;;
30519;SDS011;17300;50.374;8.006;2022-10-26T02:21:28;3.00;;;2.00;;
30519;SDS011;17300;50.374;8.006;2022-10-26T02:23:59;2.03;;;1.83;;
30519;SDS011;17300;50.374;8.006;2022-10-26T02:26:27;2.77;;;2.20;;
30519;SDS011;17300;50.374;8.006;2022-10-26T02:28:58;2.30;;;2.00;;
30519;SDS011;17300;50.374;8.006;2022-10-26T02:31:28;2.50;;;1.83;;
30519;SDS011;17300;50.374;8.006;2022-10-26T02:33:58;1.90;;;1.80;;
30519;SDS011;17300;50.374;8.006;2022-10-26T02:36:29;3.80;;;2.00;;
30519;SDS011;17300;50.374;8.006;2022-10-26T02:38:59;3.87;;;2.10;;
30519;SDS011;17300;50.374;8.006;2022-10-26T02:41:29;2.37;;;1.63;;
30519;SDS011;17300;50.374;8.006;2022-10-26T02:43:58;5.10;;;1.73;;
30519;SDS011;17300;50.374;8.006;2022-10-26T02:46:30;4.10;;;1.73;;
30519;SDS011;17300;50.374;8.006;2022-10-26T02:48:58;2.47;;;1.80;;
30519;SDS011;17300;50.374;8.006;2022-10-26T02:51:27;4.37;;;1.80;;
30519;SDS011;17300;50.374;8.006;2022-10-26T02:54:01;1.90;;;1.80;;
30519;SDS011;17300;50.374;8.006;2022-10-26T02:56:38;2.57;;;1.80;;
30519;SDS011;17300;50.374;8.006;2022-10-26T02:59:08;3.23;;;1.77;;
30519;SDS011;17300;50.374;8.006;2022-10-26T03:01:37;3.50;;;2.03;;
30519;SDS011;17300;50.374;8.006;2022-10-26T03:04:07;2.27;;;2.00;;
30519;SDS011;17300;50.374;8.006;2022-10-26T03:06:34;1.93;;;1.80;;
30519;SDS011;17300;50.374;8.006;2022-10-26T03:09:00;2.40;;;1.60;;
30519;SDS011;17300;50.374;8.006;2022-10-26T03:11:27;1.77;;;1.60;;
30519;SDS011;17300;50.374;8.006;2022-10-26T03:13:54;1.90;;;1.63;;
30519;SDS011;17300;50.374;8.006;2022-10-26T03:16:21;2.33;;;1.83;;
30519;SDS011;17300;50.374;8.006;2022-10-26T03:18:47;3.73;;;1.80;;
30519;SDS011;17300;50.374;8.006;2022-10-26T03:21:15;2.50;;;2.07;;
30519;SDS011;17300;50.374;8.006;2022-10-26T03:23:42;2.43;;;1.93;;
30519;SDS011;17300;50.374;8.006;2022-10-26T03:26:11;3.67;;;1.87;;
30519;SDS011;17300;50.374;8.006;2022-10-26T03:28:38;2.67;;;1.70;;
30519;SDS011;17300;50.374;8.006;2022-10-26T03:31:05;2.50;;;1.93;;
30519;SDS011;17300;50.374;8.006;2022-10-26T03:33:32;3.37;;;1.70;;
30519;SDS011;17300;50.374;8.006;2022-10-26T03:35:59;2.17;;;1.73;;
30519;SDS011;17300;50.374;8.006;2022-10-26T03:38:27;1.90;;;1.80;;
30519;SDS011;17300;50.374;8.006;2022-10-26T03:40:54;2.97;;;1.83;;
30519;SDS011;17300;50.374;8.006;2022-10-26T03:43:20;2.33;;;1.70;;
30519;SDS011;17300;50.374;8.006;2022-10-26T03:45:47;1.73;;;1.60;;
30519;SDS011;17300;50.374;8.006;2022-10-26T03:48:14;2.07;;;1.77;;
30519;SDS011;17300;50.374;8.006;2022-10-26T03:50:40;2.20;;;2.00;;
30519;SDS011;17300;50.374;8.006;2022-10-26T03:53:07;1.73;;;1.63;;
30519;SDS011;17300;50.374;8.006;2022-10-26T03:55:35;2.77;;;1.90;;
30519;SDS011;17300;50.374;8.006;2022-10-26T03:58:02;1.73;;;1.47;;
30519;SDS011;17300;50.374;8.006;2022-10-26T04:00:29;1.77;;;1.67;;
30519;SDS011;17300;50.374;8.006;2022-10-26T04:02:56;1.80;;;1.57;;
30519;SDS011;17300;50.374;8.006;2022-10-26T04:05:24;2.30;;;1.87;;
30519;SDS011;17300;50.374;8.006;2022-10-26T04:07:52;2.10;;;1.63;;
30519;SDS011;17300;50.374;8.006;2022-10-26T04:10:19;2.53;;;1.80;;
30519;SDS011;17300;50.374;8.006;2022-10-26T04:12:48;2.67;;;1.80;;
30519;SDS011;17300;50.374;8.006;2022-10-26T04:15:15;2.93;;;2.00;;
30519;SDS011;17300;50.374;8.006;2022-10-26T04:17:42;4.90;;;2.47;;
30519;SDS011;17300;50.374;8.006;2022-10-26T04:20:09;6.07;;;2.83;;
30519;SDS011;17300;50.374;8.006;2022-10-26T04:22:36;4.83;;;3.17;;
30519;SDS011;17300;50.374;8.006;2022-10-26T04:25:03;4.80;;;2.63;;
30519;SDS011;17300;50.374;8.006;2022-10-26T04:27:31;3.40;;;2.63;;
30519;SDS011;17300;50.374;8.006;2022-10-26T04:30:02;3.73;;;3.00;;
30519;SDS011;17300;50.374;8.006;2022-10-26T04:32:33;3.43;;;2.83;;
30519;SDS011;17300;50.374;8.006;2022-10-26T04:35:00;4.00;;;2.90;;
30519;SDS011;17300;50.374;8.006;2022-10-26T04:37:27;4.03;;;2.80;;
30519;SDS011;17300;50.374;8.006;2022-10-26T04:39:54;5.23;;;2.37;;
30519;SDS011;17300;50.374;8.006;2022-10-26T04:42:20;3.40;;;1.93;;
30519;SDS011;17300;50.374;8.006;2022-10-26T04:44:47;4.53;;;2.50;;
30519;SDS011;17300;50.374;8.006;2022-10-26T04:47:15;2.87;;;2.57;;
30519;SDS011;17300;50.374;8.006;2022-10-26T04:49:42;3.20;;;2.60;;
30519;SDS011;17300;50.374;8.006;2022-10-26T04:52:08;4.47;;;2.40;;
30519;SDS011;17300;50.374;8.006;2022-10-26T04:54:35;2.60;;;2.40;;
30519;SDS011;17300;50.374;8.006;2022-10-26T04:57:02;3.07;;;2.00;;
30519;SDS011;17300;50.374;8.006;2022-10-26T04:59:28;3.00;;;2.20;;
30519;SDS011;17300;50.374;8.006;2022-10-26T05:01:55;2.30;;;2.00;;
30519;SDS011;17300;50.374;8.006;2022-10-26T05:04:23;2.27;;;1.90;;
30519;SDS011;17300;50.374;8.006;2022-10-26T05:06:50;2.47;;;1.80;;
30519;SDS011;17300;50.374;8.006;2022-10-26T05:09:17;3.23;;;1.60;;
30519;SDS011;17300;50.374;8.006;2022-10-26T05:11:44;1.70;;;1.60;;
30519;SDS011;17300;50.374;8.006;2022-10-26T05:14:11;2.90;;;1.70;;
30519;SDS011;17300;50.374;8.006;2022-10-26T05:16:38;2.00;;;1.70;;
30519;SDS011;17300;50.374;8.006;2022-10-26T05:19:04;1.90;;;1.53;;
30519;SDS011;17300;50.374;8.006;2022-10-26T05:21:32;2.00;;;1.80;;
30519;SDS011;17300;50.374;8.006;2022-10-26T05:23:59;2.73;;;1.80;;
30519;SDS011;17300;50.374;8.006;2022-10-26T05:26:26;1.83;;;1.67;;
30519;SDS011;17300;50.374;8.006;2022-10-26T05:28:53;1.70;;;1.60;;
30519;SDS011;17300;50.374;8.006;2022-10-26T05:31:19;2.70;;;1.70;;
30519;SDS011;17300;50.374;8.006;2022-10-26T05:33:47;2.73;;;2.17;;
30519;SDS011;17300;50.374;8.006;2022-10-26T05:36:15;2.17;;;1.80;;
30519;SDS011;17300;50.374;8.006;2022-10-26T05:38:43;2.87;;;2.00;;
30519;SDS011;17300;50.374;8.006;2022-10-26T05:41:10;3.20;;;1.97;;
30519;SDS011;17300;50.374;8.006;2022-10-26T05:43:37;3.07;;;1.97;;
30519;SDS011;17300;50.374;8.006;2022-10-26T05:46:04;2.77;;;1.83;;
30519;SDS011;17300;50.374;8.006;2022-10-26T05:48:30;2.70;;;1.60;;
30519;SDS011;17300;50.374;8.006;2022-10-26T05:50:57;2.57;;;2.00;;
30519;SDS011;17300;50.374;8.006;2022-10-26T05:53:25;2.13;;;1.93;;
30519;SDS011;17300;50.374;8.006;2022-10-26T05:55:54;2.30;;;2.10;;
30519;SDS011;17300;50.374;8.006;2022-10-26T05:58:21;5.23;;;2.37;;
30519;SDS011;17300;50.374;8.006;2022-10-26T06:00:51;2.17;;;1.80;;
30519;SDS011;17300;50.374;8.006;2022-10-26T06:03:30;3.70;;;2.00;;
30519;SDS011;17300;50.374;8.006;2022-10-26T06:06:05;3.37;;;2.10;;
30519;SDS011;17300;50.374;8.006;2022-10-26T06:08:35;3.57;;;2.03;;
30519;SDS011;17300;50.374;8.006;2022-10-26T06:11:04;2.00;;;1.80;;
30519;SDS011;17300;50.374;8.006;2022-10-26T06:13:32;3.23;;;2.10;;
30519;SDS011;17300;50.374;8.006;2022-10-26T06:16:01;2.23;;;2.03;;
30519;SDS011;17300;50.374;8.006;2022-10-26T06:18:46;3.40;;;2.10;;
30519;SDS011;17300;50.374;8.006;2022-10-26T06:21:25;4.47;;;2.33;;
30519;SDS011;17300;50.374;8.006;2022-10-26T06:24:03;3.03;;;2.00;;
30519;SDS011;17300;50.374;8.006;2022-10-26T06:26:38;3.03;;;2.10;;
30519;SDS011;17300;50.374;8.006;2022-10-26T06:29:18;2.63;;;2.13;;
30519;SDS011;17300;50.374;8.006;2022-10-26T06:31:50;6.07;;;2.13;;
30519;SDS011;17300;50.374;8.006;2022-10-26T06:34:18;2.10;;;1.90;;
30519;SDS011;17300;50.374;8.006;2022-10-26T06:36:49;2.30;;;2.10;;
30519;SDS011;17300;50.374;8.006;2022-10-26T06:39:17;5.13;;;2.30;;
30519;SDS011;17300;50.374;8.006;2022-10-26T06:41:46;4.43;;;2.40;;
30519;SDS011;17300;50.374;8.006;2022-10-26T06:44:16;3.47;;;2.07;;
30519;SDS011;17300;50.374;8.006;2022-10-26T06:46:47;2.23;;;1.90;;
30519;SDS011;17300;50.374;8.006;2022-10-26T06:49:17;2.40;;;2.20;;
30519;SDS011;17300;50.374;8.006;2022-10-26T06:51:48;2.30;;;2.10;;
30519;SDS011;17300;50.374;8.006;2022-10-26T06:54:22;2.20;;;2.00;;
30519;SDS011;17300;50.374;8.006;2022-10-26T06:56:54;3.63;;;2.17;;
30519;SDS011;17300;50.374;8.006;2022-10-26T06:59:27;2.30;;;2.03;;
30519;SDS011;17300;50.374;8.006;2022-10-26T07:02:00;2.40;;;2.20;;
30519;SDS011;17300;50.374;8.006;2022-10-26T07:04:26;2.50;;;2.23;;
30519;SDS011;17300;50.374;8.006;2022-10-26T07:06:53;3.87;;;3.10;;
30519;SDS011;17300;50.374;8.006;2022-10-26T07:09:21;3.10;;;2.70;;
30519;SDS011;17300;50.374;8.006;2022-10-26T07:11:48;3.03;;;2.53;;
30519;SDS011;17300;50.374;8.006;2022-10-26T07:14:16;3.27;;;2.97;;
30519;SDS011;17300;50.374;8.006;2022-10-26T07:16:43;2.97;;;2.67;;
30519;SDS011;17300;50.374;8.006;2022-10-26T07:19:09;3.73;;;2.90;;
30519;SDS011;17300;50.374;8.006;2022-10-26T07:21:36;4.00;;;3.07;;
30519;SDS011;17300;50.374;8.006;2022-10-26T07:24:03;3.30;;;3.00;;
30519;SDS011;17300;50.374;8.006;2022-10-26T07:26:30;3.93;;;3.20;;
30519;SDS011;17300;50.374;8.006;2022-10-26T07:28:58;3.63;;;3.00;;
30519;SDS011;17300;50.374;8.006;2022-10-26T07:31:26;9.33;;;3.30;;
30519;SDS011;17300;50.374;8.006;2022-10-26T07:33:53;5.63;;;3.27;;
30519;SDS011;17300;50.374;8.006;2022-10-26T07:36:20;4.97;;;2.80;;
30519;SDS011;17300;50.374;8.006;2022-10-26T07:38:49;4.10;;;2.90;;
30519;SDS011;17300;50.374;8.006;2022-10-26T07:41:16;4.53;;;2.73;;
30519;SDS011;17300;50.374;8.006;2022-10-26T07:43:45;3.73;;;2.57;;
30519;SDS011;17300;50.374;8.006;2022-10-26T07:46:16;3.03;;;2.13;;
30519;SDS011;17300;50.374;8.006;2022-10-26T07:48:44;7.13;;;2.90;;
30519;SDS011;17300;50.374;8.006;2022-10-26T07:51:11;3.03;;;2.40;;
30519;SDS011;17300;50.374;8.006;2022-10-26T07:53:38;2.57;;;2.13;;
30519;SDS011;17300;50.374;8.006;2022-10-26T07:56:05;3.63;;;3.10;;
30519;SDS011;17300;50.374;8.006;2022-10-26T07:58:33;3.13;;;2.83;;
30519;SDS011;17300;50.374;8.006;2022-10-26T08:01:03;3.40;;;3.10;;
30519;SDS011;17300;50.374;8.006;2022-10-26T08:03:31;4.43;;;3.57;;
30519;SDS011;17300;50.374;8.006;2022-10-26T08:05:59;3.80;;;3.30;;
30519;SDS011;17300;50.374;8.006;2022-10-26T08:08:26;3.40;;;3.10;;
30519;SDS011;17300;50.374;8.006;2022-10-26T08:10:53;4.03;;;2.87;;
30519;SDS011;17300;50.374;8.006;2022-10-26T08:13:20;6.53;;;3.47;;
30519;SDS011;17300;50.374;8.006;2022-10-26T08:15:47;3.27;;;2.90;;
30519;SDS011;17300;50.374;8.006;2022-10-26T08:18:15;4.87;;;3.10;;
30519;SDS011;17300;50.374;8.006;2022-10-26T08:20:41;3.27;;;2.90;;
30519;SDS011;17300;50.374;8.006;2022-10-26T08:23:09;4.13;;;3.40;;
30519;SDS011;17300;50.374;8.006;2022-10-26T08:25:36;3.20;;;2.90;;
30519;SDS011;17300;50.374;8.006;2022-10-26T08:28:03;4.03;;;2.93;;
30519;SDS011;17300;50.374;8.006;2022-10-26T08:30:30;3.17;;;2.70;;
30519;SDS011;17300;50.374;8.006;2022-10-26T08:32:58;2.63;;;2.43;;
30519;SDS011;17300;50.374;8.006;2022-10-26T08:35:25;2.53;;;2.33;;
30519;SDS011;17300;50.374;8.006;2022-10-26T08:37:52;4.57;;;3.07;;
30519;SDS011;17300;50.374;8.006;2022-10-26T08:40:21;4.27;;;3.00;;
30519;SDS011;17300;50.374;8.006;2022-10-26T08:42:52;4.53;;;2.90;;
30519;SDS011;17300;50.374;8.006;2022-10-26T08:45:24;3.03;;;2.73;;
30519;SDS011;17300;50.374;8.006;2022-10-26T08:47:54;2.87;;;2.67;;
30519;SDS011;17300;50.374;8.006;2022-10-26T08:50:25;2.80;;;2.60;;
30519;SDS011;17300;50.374;8.006;2022-10-26T08:52:57;3.93;;;2.67;;
30519;SDS011;17300;50.374;8.006;2022-10-26T08:55:32;3.53;;;2.90;;
30519;SDS011;17300;50.374;8.006;2022-10-26T08:58:05;3.35;;;2.75;;
30519;SDS011;17300;50.374;8.006;2022-10-26T09:00:38;2.72;;;2.30;;
30519;SDS011;17300;50.374;8.006;2022-10-26T09:03:08;3.15;;;2.47;;
30519;SDS011;17300;50.374;8.006;2022-10-26T09:05:40;2.85;;;2.30;;
30519;SDS011;17300;50.374;8.006;2022-10-26T09:08:25;3.08;;;2.45;;
30519;SDS011;17300;50.374;8.006;2022-10-26T09:10:59;2.63;;;2.40;;
30519;SDS011;17300;50.374;8.006;2022-10-26T09:13:33;3.72;;;2.35;;
30519;SDS011;17300;50.374;8.006;2022-10-26T09:16:10;3.95;;;2.70;;
30519;SDS011;17300;50.374;8.006;2022-10-26T09:18:49;3.47;;;2.40;;
30519;SDS011;17300;50.374;8.006;2022-10-26T09:21:27;4.05;;;2.45;;
30519;SDS011;17300;50.374;8.006;2022-10-26T09:24:15;2.85;;;2.15;;
30519;SDS011;17300;50.374;8.006;2022-10-26T09:26:53;3.20;;;2.60;;
30519;SDS011;17300;50.374;8.006;2022-10-26T09:29:22;3.53;;;2.38;;
30519;SDS011;17300;50.374;8.006;2022-10-26T09:31:51;3.85;;;2.70;;
30519;SDS011;17300;50.374;8.006;2022-10-26T09:34:23;2.60;;;2.30;;
30519;SDS011;17300;50.374;8.006;2022-10-26T09:36:53;3.80;;;2.45;;
30519;SDS011;17300;50.374;8.006;2022-10-26T09:39:22;3.85;;;2.60;;
30519;SDS011;17300;50.374;8.006;2022-10-26T09:41:57;4.40;;;2.17;;
30519;SDS011;17300;50.374;8.006;2022-10-26T09:44:28;4.25;;;2.15;;
30519;SDS011;17300;50.374;8.006;2022-10-26T09:47:01;3.53;;;2.60;;
30519;SDS011;17300;50.374;8.006;2022-10-26T09:49:33;3.03;;;2.67;;
30519;SDS011;17300;50.374;8.006;2022-10-26T09:52:06;3.17;;;2.67;;
30519;SDS011;17300;50.374;8.006;2022-10-26T09:54:33;3.47;;;2.65;;
30519;SDS011;17300;50.374;8.006;2022-10-26T09:57:02;3.03;;;2.72;;
30519;SDS011;17300;50.374;8.006;2022-10-26T09:59:32;3.03;;;2.47;;
30519;SDS011;17300;50.374;8.006;2022-10-26T10:02:04;2.75;;;2.53;;
30519;SDS011;17300;50.374;8.006;2022-10-26T10:04:57;3.03;;;2.45;;
30519;SDS011;17300;50.374;8.006;2022-10-26T10:07:24;3.03;;;2.70;;
30519;SDS011;17300;50.374;8.006;2022-10-26T10:10:04;3.33;;;2.57;;
30519;SDS011;17300;50.374;8.006;2022-10-26T10:12:34;3.80;;;2.40;;
30519;SDS011;17300;50.374;8.006;2022-10-26T10:15:01;2.77;;;2.47;;
30519;SDS011;17300;50.374;8.006;2022-10-26T10:17:29;3.33;;;2.72;;
30519;SDS011;17300;50.374;8.006;2022-10-26T10:20:00;3.70;;;2.88;;
30519;SDS011;17300;50.374;8.006;2022-10-26T10:22:33;3.65;;;2.60;;
30519;SDS011;17300;50.374;8.006;2022-10-26T10:25:01;4.88;;;2.45;;
30519;SDS011;17300;50.374;8.006;2022-10-26T10:27:30;4.40;;;2.55;;
30519;SDS011;17300;50.374;8.006;2022-10-26T10:30:18;3.33;;;2.63;;
30519;SDS011;17300;50.374;8.006;2022-10-26T10:32:47;3.13;;;2.45;;
30519;SDS011;17300;50.374;8.006;2022-10-26T10:35:30;2.72;;;2.40;;
30519;SDS011;17300;50.374;8.006;2022-10-26T10:37:56;2.40;;;2.20;;
30519;SDS011;17300;50.374;8.006;2022-10-26T10:40:24;3.08;;;2.20;;
30519;SDS011;17300;50.374;8.006;2022-10-26T10:42:53;4.03;;;2.17;;
30519;SDS011;17300;50.374;8.006;2022-10-26T10:45:29;2.85;;;2.10;;
30519;SDS011;17300;50.374;8.006;2022-10-26T10:47:57;2.42;;;2.08;;
30519;SDS011;17300;50.374;8.006;2022-10-26T10:50:27;2.88;;;2.00;;
30519;SDS011;17300;50.374;8.006;2022-10-26T10:55:44;2.88;;;1.75;;
30519;SDS011;17300;50.374;8.006;2022-10-26T10:58:21;3.30;;;1.60;;
30519;SDS011;17300;50.374;8.006;2022-10-26T11:00:54;2.22;;;1.67;;
30519;SDS011;17300;50.374;8.006;2022-10-26T11:03:40;3.00;;;1.80;;
30519;SDS011;17300;50.374;8.006;2022-10-26T11:06:15;3.05;;;1.80;;
30519;SDS011;17300;50.374;8.006;2022-10-26T11:08:45;1.73;;;1.30;;
30519;SDS011;17300;50.374;8.006;2022-10-26T11:11:16;2.25;;;1.67;;
30519;SDS011;17300;50.374;8.006;2022-10-26T11:13:47;3.25;;;1.77;;
30519;SDS011;17300;50.374;8.006;2022-10-26T11:16:21;1.98;;;1.60;;
30519;SDS011;17300;50.374;8.006;2022-10-26T11:18:51;2.20;;;1.70;;
30519;SDS011;17300;50.374;8.006;2022-10-26T11:21:24;2.08;;;1.65;;
30519;SDS011;17300;50.374;8.006;2022-10-26T11:23:55;2.78;;;1.80;;
30519;SDS011;17300;50.374;8.006;2022-10-26T11:26:37;2.45;;;1.70;;
30519;SDS011;17300;50.374;8.006;2022-10-26T11:29:35;2.58;;;1.80;;
30519;SDS011;17300;50.374;8.006;2022-10-26T11:32:24;3.10;;;1.80;;
30519;SDS011;17300;50.374;8.006;2022-10-26T11:34:57;2.30;;;1.85;;
30519;SDS011;17300;50.374;8.006;2022-10-26T11:37:31;2.10;;;1.83;;
30519;SDS011;17300;50.374;8.006;2022-10-26T11:40:11;3.97;;;1.55;;
30519;SDS011;17300;50.374;8.006;2022-10-26T11:42:51;2.13;;;1.55;;
30519;SDS011;17300;50.374;8.006;2022-10-26T11:45:25;2.15;;;1.50;;
30519;SDS011;17300;50.374;8.006;2022-10-26T11:47:59;3.10;;;1.83;;
30519;SDS011;17300;50.374;8.006;2022-10-26T11:50:29;2.97;;;1.50;;
30519;SDS011;17300;50.374;8.006;2022-10-26T11:52:59;2.60;;;1.65;;
30519;SDS011;17300;50.374;8.006;2022-10-26T11:55:29;2.28;;;1.60;;
30519;SDS011;17300;50.374;8.006;2022-10-26T11:57:56;2.10;;;1.50;;
30519;SDS011;17300;50.374;8.006;2022-10-26T12:00:24;2.28;;;1.48;;
30519;SDS011;17300;50.374;8.006;2022-10-26T12:03:31;2.13;;;1.38;;
30519;SDS011;17300;50.374;8.006;2022-10-26T12:06:40;2.83;;;1.33;;
30519;SDS011;17300;50.374;8.006;2022-10-26T12:10:30;1.90;;;1.50;;
30519;SDS011;17300;50.374;8.006;2022-10-26T12:20:33;2.25;;;1.50;;
30519;SDS011;17300;50.374;8.006;2022-10-26T12:23:26;1.25;;;1.15;;
30519;SDS011;17300;50.374;8.006;2022-10-26T12:31:53;1.60;;;1.30;;
30519;SDS011;17300;50.374;8.006;2022-10-26T12:34:23;2.25;;;1.30;;
30519;SDS011;17300;50.374;8.006;2022-10-26T12:37:21;1.20;;;1.00;;
30519;SDS011;17300;50.374;8.006;2022-10-26T12:39:53;2.35;;;1.00;;
30519;SDS011;17300;50.374;8.006;2022-10-26T12:42:27;1.10;;;1.00;;
30519;SDS011;17300;50.374;8.006;2022-10-26T12:45:01;2.40;;;1.00;;
30519;SDS011;17300;50.374;8.006;2022-10-26T12:47:59;1.27;;;0.77;;
30519;SDS011;17300;50.374;8.006;2022-10-26T12:50:28;1.10;;;0.90;;
30519;SDS011;17300;50.374;8.006;2022-10-26T12:52:56;1.85;;;0.88;;
30519;SDS011;17300;50.374;8.006;2022-10-26T12:58:39;3.25;;;1.00;;
30519;SDS011;17300;50.374;8.006;2022-10-26T13:04:43;1.60;;;0.93;;
30519;SDS011;17300;50.374;8.006;2022-10-26T13:07:48;2.35;;;0.90;;
30519;SDS011;17300;50.374;8.006;2022-10-26T13:10:17;1.20;;;0.82;;
30519;SDS011;17300;50.374;8.006;2022-10-26T13:12:47;1.05;;;0.70;;
30519;SDS011;17300;50.374;8.006;2022-10-26T13:15:23;1.15;;;0.75;;
30519;SDS011;17300;50.374;8.006;2022-10-26T13:17:57;1.17;;;0.90;;
30519;SDS011;17300;50.374;8.006;2022-10-26T13:20:27;1.35;;;1.00;;
30519;SDS011;17300;50.374;8.006;2022-10-26T13:22:56;2.20;;;0.88;;
30519;SDS011;17300;50.374;8.006;2022-10-26T13:25:25;1.10;;;0.90;;
30519;SDS011;17300;50.374;8.006;2022-10-26T13:27:58;0.90;;;0.85;;
30519;SDS011;17300;50.374;8.006;2022-10-26T13:33:10;1.05;;;0.85;;
30519;SDS011;17300;50.374;8.006;2022-10-26T13:35:43;0.85;;;0.80;;
30519;SDS011;17300;50.374;8.006;2022-10-26T13:38:10;2.05;;;1.10;;
30519;SDS011;17300;50.374;8.006;2022-10-26T13:40:42;3.17;;;0.95;;
30519;SDS011;17300;50.374;8.006;2022-10-26T13:43:12;1.58;;;0.95;;
30519;SDS011;17300;50.374;8.006;2022-10-26T13:45:45;1.08;;;0.80;;
30519;SDS011;17300;50.374;8.006;2022-10-26T13:48:17;1.65;;;0.90;;
30519;SDS011;17300;50.374;8.006;2022-10-26T13:50:50;2.20;;;0.80;;
30519;SDS011;17300;50.374;8.006;2022-10-26T13:53:20;1.40;;;1.00;;
30519;SDS011;17300;50.374;8.006;2022-10-26T13:55:52;4.07;;;0.90;;
30519;SDS011;17300;50.374;8.006;2022-10-26T13:58:24;1.27;;;0.90;;
30519;SDS011;17300;50.374;8.006;2022-10-26T14:00:58;1.38;;;0.73;;
30519;SDS011;17300;50.374;8.006;2022-10-26T14:03:26;2.15;;;1.35;;
30519;SDS011;17300;50.374;8.006;2022-10-26T14:05:53;1.77;;;0.70;;
30519;SDS011;17300;50.374;8.006;2022-10-26T14:08:21;1.40;;;1.10;;
30519;SDS011;17300;50.374;8.006;2022-10-26T14:10:52;2.30;;;2.08;;
30519;SDS011;17300;50.374;8.006;2022-10-26T14:13:22;2.65;;;1.98;;
30519;SDS011;17300;50.374;8.006;2022-10-26T14:15:51;3.47;;;1.40;;
30519;SDS011;17300;50.374;8.006;2022-10-26T14:18:20;3.42;;;1.20;;
30519;SDS011;17300;50.374;8.006;2022-10-26T14:20:51;1.02;;;0.90;;
30519;SDS011;17300;50.374;8.006;2022-10-26T14:23:26;1.63;;;1.00;;
30519;SDS011;17300;50.374;8.006;2022-10-26T14:25:55;0.80;;;0.80;;
30519;SDS011;17300;50.374;8.006;2022-10-26T14:28:23;1.20;;;0.90;;
30519;SDS011;17300;50.374;8.006;2022-10-26T14:30:51;1.48;;;0.77;;
30519;SDS011;17300;50.374;8.006;2022-10-26T14:33:18;1.15;;;0.90;;
30519;SDS011;17300;50.374;8.006;2022-10-26T14:35:45;0.77;;;0.68;;
30519;SDS011;17300;50.374;8.006;2022-10-26T14:38:14;1.30;;;0.93;;
30519;SDS011;17300;50.374;8.006;2022-10-26T14:40:43;1.33;;;1.00;;
30519;SDS011;17300;50.374;8.006;2022-10-26T14:43:13;1.20;;;0.70;;
30519;SDS011;17300;50.374;8.006;2022-10-26T14:45:46;1.17;;;0.60;;
30519;SDS011;17300;50.374;8.006;2022-10-26T14:48:18;1.90;;;0.85;;
30519;SDS011;17300;50.374;8.006;2022-10-26T14:50:58;1.88;;;0.90;;
30519;SDS011;17300;50.374;8.006;2022-10-26T14:53:28;0.88;;;0.70;;
30519;SDS011;17300;50.374;8.006;2022-10-26T14:55:59;1.00;;;0.90;;
30519;SDS011;17300;50.374;8.006;2022-10-26T14:58:28;2.80;;;0.80;;
30519;SDS011;17300;50.374;8.006;2022-10-26T15:01:15;1.05;;;0.80;;
30519;SDS011;17300;50.374;8.006;2022-10-26T15:03:50;0.93;;;0.70;;
30519;SDS011;17300;50.374;8.006;2022-10-26T15:06:33;1.92;;;0.90;;
30519;SDS011;17300;50.374;8.006;2022-10-26T15:09:27;1.35;;;0.80;;
30519;SDS011;17300;50.374;8.006;2022-10-26T15:11:56;1.42;;;0.85;;
30519;SDS011;17300;50.374;8.006;2022-10-26T15:14:24;2.35;;;0.80;;
30519;SDS011;17300;50.374;8.006;2022-10-26T15:16:52;1.45;;;0.98;;
30519;SDS011;17300;50.374;8.006;2022-10-26T15:19:21;0.80;;;0.60;;
30519;SDS011;17300;50.374;8.006;2022-10-26T15:21:49;1.47;;;1.07;;
30519;SDS011;17300;50.374;8.006;2022-10-26T15:24:23;1.77;;;1.00;;
30519;SDS011;17300;50.374;8.006;2022-10-26T15:26:54;0.85;;;0.63;;
30519;SDS011;17300;50.374;8.006;2022-10-26T15:29:35;1.73;;;1.07;;
30519;SDS011;17300;50.374;8.006;2022-10-26T15:32:03;1.37;;;1.00;;
30519;SDS011;17300;50.374;8.006;2022-10-26T15:34:31;1.23;;;1.00;;
30519;SDS011;17300;50.374;8.006;2022-10-26T15:36:58;2.20;;;1.10;;
30519;SDS011;17300;50.374;8.006;2022-10-26T15:39:25;1.30;;;1.20;;
30519;SDS011;17300;50.374;8.006;2022-10-26T15:41:52;3.17;;;1.53;;
30519;SDS011;17300;50.374;8.006;2022-10-26T15:44:20;3.13;;;1.50;;